sensor_id;sensor_type;location;lat;lon;timestamp;P1;durP1;ratioP1;P2;durP2;ratioP2
41984;SDS011;28319;48.116;10.818;2023-11-21T00:00:34;1.33;;;0.93;;
41984;SDS011;28319;48.116;10.818;2023-11-21T00:05:36;2.03;;;1.00;;
41984;SDS011;28319;48.116;10.818;2023-11-21T00:10:38;1.93;;;1.00;;
41984;SDS011;28319;48.116;10.818;2023-11-21T00:15:42;3.10;;;1.30;;
41984;SDS011;28319;48.116;10.818;2023-11-21T00:20:44;1.33;;;0.70;;
41984;SDS011;28319;48.116;10.818;2023-11-21T00:25:46;1.07;;;0.93;;
41984;SDS011;28319;48.116;10.818;2023-11-21T00:30:49;1.53;;;1.23;;
41984;SDS011;28319;48.116;10.818;2023-11-21T00:35:51;2.93;;;1.40;;
41984;SDS011;28319;48.116;10.818;2023-11-21T00:40:54;3.13;;;1.20;;
41984;SDS011;28319;48.116;10.818;2023-11-21T00:45:57;2.57;;;1.30;;
41984;SDS011;28319;48.116;10.818;2023-11-21T00:50:59;2.37;;;1.10;;
41984;SDS011;28319;48.116;10.818;2023-11-21T00:56:02;2.50;;;1.50;;
41984;SDS011;28319;48.116;10.818;2023-11-21T01:01:06;2.00;;;1.20;;
41984;SDS011;28319;48.116;10.818;2023-11-21T01:06:08;4.43;;;1.20;;
41984;SDS011;28319;48.116;10.818;2023-11-21T01:11:10;2.87;;;0.93;;
41984;SDS011;28319;48.116;10.818;2023-11-21T01:16:15;1.10;;;0.73;;
41984;SDS011;28319;48.116;10.818;2023-11-21T01:21:17;2.50;;;1.00;;
41984;SDS011;28319;48.116;10.818;2023-11-21T01:26:20;1.03;;;0.57;;
41984;SDS011;28319;48.116;10.818;2023-11-21T01:31:24;1.33;;;0.80;;
41984;SDS011;28319;48.116;10.818;2023-11-21T01:36:32;3.30;;;1.00;;
41984;SDS011;28319;48.116;10.818;2023-11-21T01:41:35;3.00;;;0.97;;
41984;SDS011;28319;48.116;10.818;2023-11-21T01:46:38;1.87;;;0.90;;
41984;SDS011;28319;48.116;10.818;2023-11-21T01:51:41;4.10;;;1.10;;
41984;SDS011;28319;48.116;10.818;2023-11-21T01:56:45;1.77;;;1.00;;
41984;SDS011;28319;48.116;10.818;2023-11-21T02:01:51;4.27;;;1.23;;
41984;SDS011;28319;48.116;10.818;2023-11-21T02:06:53;0.97;;;0.80;;
41984;SDS011;28319;48.116;10.818;2023-11-21T02:11:56;0.83;;;0.70;;
41984;SDS011;28319;48.116;10.818;2023-11-21T02:17:00;1.43;;;0.57;;
41984;SDS011;28319;48.116;10.818;2023-11-21T02:22:03;2.30;;;0.97;;
41984;SDS011;28319;48.116;10.818;2023-11-21T02:27:07;5.60;;;1.20;;
41984;SDS011;28319;48.116;10.818;2023-11-21T02:32:10;0.73;;;0.47;;
41984;SDS011;28319;48.116;10.818;2023-11-21T02:37:12;1.27;;;0.90;;
41984;SDS011;28319;48.116;10.818;2023-11-21T02:42:15;1.23;;;0.80;;
41984;SDS011;28319;48.116;10.818;2023-11-21T02:47:18;1.43;;;0.83;;
41984;SDS011;28319;48.116;10.818;2023-11-21T02:52:20;4.43;;;0.87;;
41984;SDS011;28319;48.116;10.818;2023-11-21T02:57:24;2.37;;;1.23;;
41984;SDS011;28319;48.116;10.818;2023-11-21T03:02:26;2.97;;;0.90;;
41984;SDS011;28319;48.116;10.818;2023-11-21T03:07:28;2.17;;;0.70;;
41984;SDS011;28319;48.116;10.818;2023-11-21T03:12:31;1.23;;;0.50;;
41984;SDS011;28319;48.116;10.818;2023-11-21T03:17:33;2.23;;;0.63;;
41984;SDS011;28319;48.116;10.818;2023-11-21T03:22:35;1.73;;;0.80;;
41984;SDS011;28319;48.116;10.818;2023-11-21T03:27:39;2.07;;;0.77;;
41984;SDS011;28319;48.116;10.818;2023-11-21T03:32:41;1.10;;;0.87;;
41984;SDS011;28319;48.116;10.818;2023-11-21T03:37:43;2.10;;;0.80;;
41984;SDS011;28319;48.116;10.818;2023-11-21T03:42:47;1.33;;;0.90;;
41984;SDS011;28319;48.116;10.818;2023-11-21T03:47:49;3.03;;;1.03;;
41984;SDS011;28319;48.116;10.818;2023-11-21T03:52:51;2.00;;;1.13;;
41984;SDS011;28319;48.116;10.818;2023-11-21T03:57:54;1.37;;;0.90;;
41984;SDS011;28319;48.116;10.818;2023-11-21T04:02:57;1.13;;;1.03;;
41984;SDS011;28319;48.116;10.818;2023-11-21T04:07:59;1.30;;;0.73;;
41984;SDS011;28319;48.116;10.818;2023-11-21T04:13:03;1.50;;;0.63;;
41984;SDS011;28319;48.116;10.818;2023-11-21T04:18:05;0.77;;;0.53;;
41984;SDS011;28319;48.116;10.818;2023-11-21T04:23:07;0.73;;;0.57;;
41984;SDS011;28319;48.116;10.818;2023-11-21T04:28:11;1.13;;;0.43;;
41984;SDS011;28319;48.116;10.818;2023-11-21T04:33:13;3.37;;;0.60;;
41984;SDS011;28319;48.116;10.818;2023-11-21T04:38:16;2.20;;;0.70;;
41984;SDS011;28319;48.116;10.818;2023-11-21T04:43:20;1.40;;;0.60;;
41984;SDS011;28319;48.116;10.818;2023-11-21T04:48:22;0.30;;;0.30;;
41984;SDS011;28319;48.116;10.818;2023-11-21T04:53:24;0.77;;;0.40;;
41984;SDS011;28319;48.116;10.818;2023-11-21T04:58:27;0.27;;;0.27;;
41984;SDS011;28319;48.116;10.818;2023-11-21T05:03:30;0.67;;;0.50;;
41984;SDS011;28319;48.116;10.818;2023-11-21T05:08:32;0.83;;;0.40;;
41984;SDS011;28319;48.116;10.818;2023-11-21T05:13:36;0.33;;;0.30;;
41984;SDS011;28319;48.116;10.818;2023-11-21T05:18:39;0.57;;;0.50;;
41984;SDS011;28319;48.116;10.818;2023-11-21T05:23:41;0.53;;;0.53;;
41984;SDS011;28319;48.116;10.818;2023-11-21T05:28:44;0.30;;;0.30;;
41984;SDS011;28319;48.116;10.818;2023-11-21T05:33:47;0.37;;;0.30;;
41984;SDS011;28319;48.116;10.818;2023-11-21T05:38:49;0.43;;;0.43;;
41984;SDS011;28319;48.116;10.818;2023-11-21T05:43:53;2.33;;;0.40;;
41984;SDS011;28319;48.116;10.818;2023-11-21T05:48:55;0.30;;;0.30;;
41984;SDS011;28319;48.116;10.818;2023-11-21T05:53:57;1.70;;;0.60;;
41984;SDS011;28319;48.116;10.818;2023-11-21T05:59:00;0.70;;;0.70;;
41984;SDS011;28319;48.116;10.818;2023-11-21T06:04:03;1.23;;;1.23;;
41984;SDS011;28319;48.116;10.818;2023-11-21T06:09:08;1.53;;;0.90;;
41984;SDS011;28319;48.116;10.818;2023-11-21T06:14:13;0.57;;;0.57;;
41984;SDS011;28319;48.116;10.818;2023-11-21T06:19:18;1.00;;;0.90;;
41984;SDS011;28319;48.116;10.818;2023-11-21T06:24:20;1.70;;;1.10;;
41984;SDS011;28319;48.116;10.818;2023-11-21T06:29:23;1.80;;;1.20;;
41984;SDS011;28319;48.116;10.818;2023-11-21T06:34:25;0.70;;;0.70;;
41984;SDS011;28319;48.116;10.818;2023-11-21T06:39:28;0.50;;;0.50;;
41984;SDS011;28319;48.116;10.818;2023-11-21T06:44:31;1.77;;;0.60;;
41984;SDS011;28319;48.116;10.818;2023-11-21T06:49:33;2.17;;;0.67;;
41984;SDS011;28319;48.116;10.818;2023-11-21T06:54:36;0.70;;;0.70;;
41984;SDS011;28319;48.116;10.818;2023-11-21T06:59:40;1.07;;;0.60;;
41984;SDS011;28319;48.116;10.818;2023-11-21T07:04:42;1.77;;;0.97;;
41984;SDS011;28319;48.116;10.818;2023-11-21T07:09:44;1.23;;;0.73;;
41984;SDS011;28319;48.116;10.818;2023-11-21T07:14:47;1.63;;;1.13;;
41984;SDS011;28319;48.116;10.818;2023-11-21T07:19:49;0.63;;;0.63;;
41984;SDS011;28319;48.116;10.818;2023-11-21T07:24:52;0.70;;;0.70;;
41984;SDS011;28319;48.116;10.818;2023-11-21T07:29:55;1.73;;;0.90;;
41984;SDS011;28319;48.116;10.818;2023-11-21T07:34:57;1.00;;;0.70;;
41984;SDS011;28319;48.116;10.818;2023-11-21T07:40:01;2.10;;;0.90;;
41984;SDS011;28319;48.116;10.818;2023-11-21T07:45:10;0.87;;;0.70;;
41984;SDS011;28319;48.116;10.818;2023-11-21T07:50:13;1.37;;;1.13;;
41984;SDS011;28319;48.116;10.818;2023-11-21T07:55:15;1.60;;;1.10;;
41984;SDS011;28319;48.116;10.818;2023-11-21T08:00:20;1.23;;;0.80;;
41984;SDS011;28319;48.116;10.818;2023-11-21T08:05:22;2.20;;;0.80;;
41984;SDS011;28319;48.116;10.818;2023-11-21T08:10:24;2.20;;;1.47;;
41984;SDS011;28319;48.116;10.818;2023-11-21T08:15:28;0.83;;;0.83;;
41984;SDS011;28319;48.116;10.818;2023-11-21T08:20:31;1.73;;;1.20;;
41984;SDS011;28319;48.116;10.818;2023-11-21T08:25:36;2.17;;;1.20;;
41984;SDS011;28319;48.116;10.818;2023-11-21T08:30:40;2.43;;;1.60;;
41984;SDS011;28319;48.116;10.818;2023-11-21T08:35:42;1.17;;;1.10;;
41984;SDS011;28319;48.116;10.818;2023-11-21T08:40:44;1.27;;;0.87;;
41984;SDS011;28319;48.116;10.818;2023-11-21T08:45:48;1.83;;;1.07;;
41984;SDS011;28319;48.116;10.818;2023-11-21T08:50:50;1.30;;;1.20;;
41984;SDS011;28319;48.116;10.818;2023-11-21T08:55:52;1.10;;;0.90;;
41984;SDS011;28319;48.116;10.818;2023-11-21T09:00:55;1.53;;;1.17;;
41984;SDS011;28319;48.116;10.818;2023-11-21T09:05:57;1.70;;;1.10;;
41984;SDS011;28319;48.116;10.818;2023-11-21T09:10:59;2.93;;;1.13;;
41984;SDS011;28319;48.116;10.818;2023-11-21T09:16:04;1.00;;;1.00;;
41984;SDS011;28319;48.116;10.818;2023-11-21T09:21:06;2.60;;;1.33;;
41984;SDS011;28319;48.116;10.818;2023-11-21T09:26:08;4.53;;;3.27;;
41984;SDS011;28319;48.116;10.818;2023-11-21T09:31:12;2.37;;;0.93;;
41984;SDS011;28319;48.116;10.818;2023-11-21T09:36:16;1.00;;;1.00;;
41984;SDS011;28319;48.116;10.818;2023-11-21T09:41:19;1.57;;;1.30;;
41984;SDS011;28319;48.116;10.818;2023-11-21T09:46:28;1.00;;;1.00;;
41984;SDS011;28319;48.116;10.818;2023-11-21T09:51:31;2.17;;;1.13;;
41984;SDS011;28319;48.116;10.818;2023-11-21T09:56:38;1.47;;;1.03;;
41984;SDS011;28319;48.116;10.818;2023-11-21T10:01:42;1.93;;;1.40;;
41984;SDS011;28319;48.116;10.818;2023-11-21T10:06:44;1.27;;;1.00;;
41984;SDS011;28319;48.116;10.818;2023-11-21T10:11:47;2.13;;;1.50;;
41984;SDS011;28319;48.116;10.818;2023-11-21T10:16:53;2.37;;;1.10;;
41984;SDS011;28319;48.116;10.818;2023-11-21T10:21:56;1.50;;;1.13;;
41984;SDS011;28319;48.116;10.818;2023-11-21T10:27:01;1.13;;;1.03;;
41984;SDS011;28319;48.116;10.818;2023-11-21T10:32:05;1.87;;;1.20;;
41984;SDS011;28319;48.116;10.818;2023-11-21T10:37:10;1.47;;;1.37;;
41984;SDS011;28319;48.116;10.818;2023-11-21T10:42:13;2.63;;;1.50;;
41984;SDS011;28319;48.116;10.818;2023-11-21T10:47:17;2.43;;;1.40;;
41984;SDS011;28319;48.116;10.818;2023-11-21T10:52:20;3.73;;;1.23;;
41984;SDS011;28319;48.116;10.818;2023-11-21T10:57:22;1.50;;;1.40;;
41984;SDS011;28319;48.116;10.818;2023-11-21T11:02:27;1.33;;;1.23;;
41984;SDS011;28319;48.116;10.818;2023-11-21T11:07:32;2.37;;;1.50;;
41984;SDS011;28319;48.116;10.818;2023-11-21T11:12:36;1.00;;;1.00;;
41984;SDS011;28319;48.116;10.818;2023-11-21T11:17:40;1.40;;;1.20;;
41984;SDS011;28319;48.116;10.818;2023-11-21T11:22:47;1.13;;;1.13;;
41984;SDS011;28319;48.116;10.818;2023-11-21T11:27:59;1.27;;;1.10;;
41984;SDS011;28319;48.116;10.818;2023-11-21T11:33:12;1.47;;;1.37;;
41984;SDS011;28319;48.116;10.818;2023-11-21T11:38:27;1.80;;;1.70;;
41984;SDS011;28319;48.116;10.818;2023-11-21T11:43:33;2.47;;;1.80;;
41984;SDS011;28319;48.116;10.818;2023-11-21T11:48:45;2.63;;;1.93;;
41984;SDS011;28319;48.116;10.818;2023-11-21T11:53:47;1.17;;;1.17;;
41984;SDS011;28319;48.116;10.818;2023-11-21T11:58:50;1.27;;;1.10;;
41984;SDS011;28319;48.116;10.818;2023-11-21T12:09:37;1.23;;;0.77;;
41984;SDS011;28319;48.116;10.818;2023-11-21T12:14:39;1.23;;;1.20;;
41984;SDS011;28319;48.116;10.818;2023-11-21T12:19:41;1.53;;;1.37;;
41984;SDS011;28319;48.116;10.818;2023-11-21T12:24:45;1.20;;;1.10;;
41984;SDS011;28319;48.116;10.818;2023-11-21T12:29:47;0.80;;;0.80;;
41984;SDS011;28319;48.116;10.818;2023-11-21T12:34:49;0.67;;;0.67;;
41984;SDS011;28319;48.116;10.818;2023-11-21T12:39:52;1.20;;;1.10;;
41984;SDS011;28319;48.116;10.818;2023-11-21T12:45:10;0.90;;;0.90;;
41984;SDS011;28319;48.116;10.818;2023-11-21T12:50:20;4.93;;;1.33;;
41984;SDS011;28319;48.116;10.818;2023-11-21T12:55:24;1.00;;;1.00;;
41984;SDS011;28319;48.116;10.818;2023-11-21T13:00:28;1.27;;;0.97;;
41984;SDS011;28319;48.116;10.818;2023-11-21T13:05:34;1.63;;;0.90;;
41984;SDS011;28319;48.116;10.818;2023-11-21T13:10:40;1.50;;;1.40;;
41984;SDS011;28319;48.116;10.818;2023-11-21T13:15:47;0.60;;;0.60;;
41984;SDS011;28319;48.116;10.818;2023-11-21T13:20:50;1.70;;;1.00;;
41984;SDS011;28319;48.116;10.818;2023-11-21T13:25:55;1.23;;;0.90;;
41984;SDS011;28319;48.116;10.818;2023-11-21T13:30:58;2.00;;;1.20;;
41984;SDS011;28319;48.116;10.818;2023-11-21T13:36:05;1.43;;;1.37;;
41984;SDS011;28319;48.116;10.818;2023-11-21T13:41:11;0.90;;;0.90;;
41984;SDS011;28319;48.116;10.818;2023-11-21T13:46:14;1.60;;;1.50;;
41984;SDS011;28319;48.116;10.818;2023-11-21T13:51:21;2.50;;;1.43;;
41984;SDS011;28319;48.116;10.818;2023-11-21T13:56:33;1.43;;;1.20;;
41984;SDS011;28319;48.116;10.818;2023-11-21T14:01:35;1.60;;;1.20;;
41984;SDS011;28319;48.116;10.818;2023-11-21T14:06:54;0.80;;;0.80;;
41984;SDS011;28319;48.116;10.818;2023-11-21T14:11:57;0.87;;;0.87;;
41984;SDS011;28319;48.116;10.818;2023-11-21T14:17:03;0.70;;;0.70;;
41984;SDS011;28319;48.116;10.818;2023-11-21T14:22:07;1.37;;;0.77;;
41984;SDS011;28319;48.116;10.818;2023-11-21T14:27:11;0.50;;;0.50;;
41984;SDS011;28319;48.116;10.818;2023-11-21T14:32:13;0.53;;;0.53;;
41984;SDS011;28319;48.116;10.818;2023-11-21T14:37:16;1.23;;;0.70;;
41984;SDS011;28319;48.116;10.818;2023-11-21T14:42:19;0.70;;;0.70;;
41984;SDS011;28319;48.116;10.818;2023-11-21T14:47:25;0.97;;;0.97;;
41984;SDS011;28319;48.116;10.818;2023-11-21T14:52:27;1.50;;;1.40;;
41984;SDS011;28319;48.116;10.818;2023-11-21T14:57:37;0.63;;;0.63;;
41984;SDS011;28319;48.116;10.818;2023-11-21T15:02:39;0.73;;;0.73;;
41984;SDS011;28319;48.116;10.818;2023-11-21T15:07:50;1.37;;;1.37;;
41984;SDS011;28319;48.116;10.818;2023-11-21T15:12:57;1.00;;;1.00;;
41984;SDS011;28319;48.116;10.818;2023-11-21T15:17:59;1.90;;;1.40;;
41984;SDS011;28319;48.116;10.818;2023-11-21T15:23:01;1.07;;;1.07;;
41984;SDS011;28319;48.116;10.818;2023-11-21T15:28:07;1.30;;;1.20;;
41984;SDS011;28319;48.116;10.818;2023-11-21T15:33:09;3.40;;;3.10;;
41984;SDS011;28319;48.116;10.818;2023-11-21T15:38:12;1.83;;;1.73;;
41984;SDS011;28319;48.116;10.818;2023-11-21T15:43:17;2.10;;;1.80;;
41984;SDS011;28319;48.116;10.818;2023-11-21T15:48:19;8.33;;;7.03;;
41984;SDS011;28319;48.116;10.818;2023-11-21T15:53:21;5.50;;;3.03;;
41984;SDS011;28319;48.116;10.818;2023-11-21T15:58:24;2.47;;;2.27;;
41984;SDS011;28319;48.116;10.818;2023-11-21T16:03:27;2.80;;;2.60;;
41984;SDS011;28319;48.116;10.818;2023-11-21T16:08:30;4.03;;;3.63;;
41984;SDS011;28319;48.116;10.818;2023-11-21T16:13:34;4.33;;;3.93;;
41984;SDS011;28319;48.116;10.818;2023-11-21T16:18:36;8.57;;;7.20;;
41984;SDS011;28319;48.116;10.818;2023-11-21T16:23:38;4.23;;;3.90;;
41984;SDS011;28319;48.116;10.818;2023-11-21T16:28:41;2.37;;;2.23;;
41984;SDS011;28319;48.116;10.818;2023-11-21T16:33:43;4.93;;;4.13;;
41984;SDS011;28319;48.116;10.818;2023-11-21T16:38:45;4.83;;;3.80;;
41984;SDS011;28319;48.116;10.818;2023-11-21T16:43:48;3.47;;;3.17;;
41984;SDS011;28319;48.116;10.818;2023-11-21T16:48:50;5.53;;;4.33;;
41984;SDS011;28319;48.116;10.818;2023-11-21T16:53:53;6.10;;;5.13;;
41984;SDS011;28319;48.116;10.818;2023-11-21T16:58:57;6.50;;;4.37;;
41984;SDS011;28319;48.116;10.818;2023-11-21T17:03:59;5.30;;;4.30;;
41984;SDS011;28319;48.116;10.818;2023-11-21T17:09:02;5.67;;;4.70;;
41984;SDS011;28319;48.116;10.818;2023-11-21T17:14:11;6.20;;;5.10;;
41984;SDS011;28319;48.116;10.818;2023-11-21T17:19:13;4.30;;;3.90;;
41984;SDS011;28319;48.116;10.818;2023-11-21T17:24:15;4.57;;;3.73;;
41984;SDS011;28319;48.116;10.818;2023-11-21T17:29:18;5.30;;;4.20;;
41984;SDS011;28319;48.116;10.818;2023-11-21T17:34:20;11.77;;;9.57;;
41984;SDS011;28319;48.116;10.818;2023-11-21T17:39:23;6.70;;;4.57;;
41984;SDS011;28319;48.116;10.818;2023-11-21T17:44:26;5.50;;;4.30;;
41984;SDS011;28319;48.116;10.818;2023-11-21T17:49:28;5.80;;;4.80;;
41984;SDS011;28319;48.116;10.818;2023-11-21T17:54:30;5.93;;;4.43;;
41984;SDS011;28319;48.116;10.818;2023-11-21T17:59:34;5.20;;;4.40;;
41984;SDS011;28319;48.116;10.818;2023-11-21T18:04:37;3.97;;;3.43;;
41984;SDS011;28319;48.116;10.818;2023-11-21T18:09:39;37.93;;;24.27;;
41984;SDS011;28319;48.116;10.818;2023-11-21T18:14:43;7.80;;;4.27;;
41984;SDS011;28319;48.116;10.818;2023-11-21T18:19:48;4.50;;;4.03;;
41984;SDS011;28319;48.116;10.818;2023-11-21T18:24:54;6.10;;;4.60;;
41984;SDS011;28319;48.116;10.818;2023-11-21T18:29:59;5.77;;;4.60;;
41984;SDS011;28319;48.116;10.818;2023-11-21T18:35:02;5.30;;;4.67;;
41984;SDS011;28319;48.116;10.818;2023-11-21T18:40:05;6.77;;;5.10;;
41984;SDS011;28319;48.116;10.818;2023-11-21T18:45:11;4.80;;;3.87;;
41984;SDS011;28319;48.116;10.818;2023-11-21T18:50:13;5.70;;;3.73;;
41984;SDS011;28319;48.116;10.818;2023-11-21T18:55:18;4.23;;;3.63;;
41984;SDS011;28319;48.116;10.818;2023-11-21T19:00:22;3.33;;;3.03;;
41984;SDS011;28319;48.116;10.818;2023-11-21T19:05:24;3.73;;;3.37;;
41984;SDS011;28319;48.116;10.818;2023-11-21T19:10:27;5.03;;;4.07;;
41984;SDS011;28319;48.116;10.818;2023-11-21T19:15:31;7.20;;;4.77;;
41984;SDS011;28319;48.116;10.818;2023-11-21T19:20:34;4.23;;;3.83;;
41984;SDS011;28319;48.116;10.818;2023-11-21T19:25:36;4.60;;;3.87;;
41984;SDS011;28319;48.116;10.818;2023-11-21T19:30:39;5.83;;;5.33;;
41984;SDS011;28319;48.116;10.818;2023-11-21T19:35:42;4.10;;;3.70;;
41984;SDS011;28319;48.116;10.818;2023-11-21T19:40:47;6.40;;;5.07;;
41984;SDS011;28319;48.116;10.818;2023-11-21T19:45:50;5.80;;;5.13;;
41984;SDS011;28319;48.116;10.818;2023-11-21T19:50:52;6.17;;;5.67;;
41984;SDS011;28319;48.116;10.818;2023-11-21T19:55:55;6.47;;;5.73;;
41984;SDS011;28319;48.116;10.818;2023-11-21T20:00:58;8.40;;;6.57;;
41984;SDS011;28319;48.116;10.818;2023-11-21T20:06:01;5.77;;;5.23;;
41984;SDS011;28319;48.116;10.818;2023-11-21T20:11:04;6.13;;;4.80;;
41984;SDS011;28319;48.116;10.818;2023-11-21T20:16:08;8.90;;;7.23;;
41984;SDS011;28319;48.116;10.818;2023-11-21T20:21:11;22.73;;;15.20;;
41984;SDS011;28319;48.116;10.818;2023-11-21T20:26:22;8.53;;;6.73;;
41984;SDS011;28319;48.116;10.818;2023-11-21T20:31:26;8.20;;;6.80;;
41984;SDS011;28319;48.116;10.818;2023-11-21T20:36:28;8.13;;;6.30;;
41984;SDS011;28319;48.116;10.818;2023-11-21T20:41:30;7.43;;;6.57;;
41984;SDS011;28319;48.116;10.818;2023-11-21T20:46:37;8.23;;;6.63;;
41984;SDS011;28319;48.116;10.818;2023-11-21T20:51:41;10.80;;;8.53;;
41984;SDS011;28319;48.116;10.818;2023-11-21T20:56:46;11.63;;;8.80;;
41984;SDS011;28319;48.116;10.818;2023-11-21T21:01:50;16.63;;;12.00;;
41984;SDS011;28319;48.116;10.818;2023-11-21T21:06:52;8.33;;;6.80;;
41984;SDS011;28319;48.116;10.818;2023-11-21T21:11:54;10.40;;;6.70;;
41984;SDS011;28319;48.116;10.818;2023-11-21T21:16:58;7.43;;;6.43;;
41984;SDS011;28319;48.116;10.818;2023-11-21T21:22:01;7.67;;;6.60;;
41984;SDS011;28319;48.116;10.818;2023-11-21T21:27:03;9.07;;;6.10;;
41984;SDS011;28319;48.116;10.818;2023-11-21T21:32:08;8.03;;;6.50;;
41984;SDS011;28319;48.116;10.818;2023-11-21T21:37:09;9.77;;;6.63;;
41984;SDS011;28319;48.116;10.818;2023-11-21T21:42:12;8.00;;;5.93;;
41984;SDS011;28319;48.116;10.818;2023-11-21T21:47:16;9.50;;;6.80;;
41984;SDS011;28319;48.116;10.818;2023-11-21T21:52:18;14.37;;;8.73;;
41984;SDS011;28319;48.116;10.818;2023-11-21T21:57:20;9.97;;;6.40;;
41984;SDS011;28319;48.116;10.818;2023-11-21T22:02:23;9.37;;;7.03;;
41984;SDS011;28319;48.116;10.818;2023-11-21T22:07:25;7.80;;;7.00;;
41984;SDS011;28319;48.116;10.818;2023-11-21T22:12:27;9.23;;;7.57;;
41984;SDS011;28319;48.116;10.818;2023-11-21T22:17:30;9.87;;;7.47;;
41984;SDS011;28319;48.116;10.818;2023-11-21T22:22:32;7.93;;;5.23;;
41984;SDS011;28319;48.116;10.818;2023-11-21T22:27:34;15.73;;;9.80;;
41984;SDS011;28319;48.116;10.818;2023-11-21T22:32:38;14.40;;;7.93;;
41984;SDS011;28319;48.116;10.818;2023-11-21T22:37:40;9.17;;;6.50;;
41984;SDS011;28319;48.116;10.818;2023-11-21T22:42:44;9.97;;;7.10;;
41984;SDS011;28319;48.116;10.818;2023-11-21T22:47:47;7.23;;;6.40;;
41984;SDS011;28319;48.116;10.818;2023-11-21T22:52:50;7.47;;;6.27;;
41984;SDS011;28319;48.116;10.818;2023-11-21T22:57:53;7.07;;;6.10;;
41984;SDS011;28319;48.116;10.818;2023-11-21T23:02:57;8.07;;;5.87;;
41984;SDS011;28319;48.116;10.818;2023-11-21T23:08:00;8.40;;;6.07;;
41984;SDS011;28319;48.116;10.818;2023-11-21T23:13:02;9.80;;;5.53;;
41984;SDS011;28319;48.116;10.818;2023-11-21T23:18:06;6.73;;;5.40;;
41984;SDS011;28319;48.116;10.818;2023-11-21T23:23:09;6.10;;;5.30;;
41984;SDS011;28319;48.116;10.818;2023-11-21T23:28:11;7.93;;;5.13;;
41984;SDS011;28319;48.116;10.818;2023-11-21T23:33:14;7.10;;;5.50;;
41984;SDS011;28319;48.116;10.818;2023-11-21T23:38:17;8.03;;;6.03;;
41984;SDS011;28319;48.116;10.818;2023-11-21T23:43:19;7.53;;;6.00;;
41984;SDS011;28319;48.116;10.818;2023-11-21T23:48:24;8.00;;;5.57;;
41984;SDS011;28319;48.116;10.818;2023-11-21T23:53:26;7.63;;;5.70;;
41984;SDS011;28319;48.116;10.818;2023-11-21T23:58:30;9.70;;;6.70;;
